sensor_id;sensor_type;location;lat;lon;timestamp;P1;durP1;ratioP1;P2;durP2;ratioP2
28174;SDS011;59417;44.788;10.334;2023-12-20T00:01:31;8.13;;;5.20;;
28174;SDS011;59417;44.788;10.334;2023-12-20T00:03:57;7.38;;;4.80;;
28174;SDS011;59417;44.788;10.334;2023-12-20T00:06:23;10.50;;;5.55;;
28174;SDS011;59417;44.788;10.334;2023-12-20T00:08:49;6.82;;;5.28;;
28174;SDS011;59417;44.788;10.334;2023-12-20T00:11:15;7.55;;;5.43;;
28174;SDS011;59417;44.788;10.334;2023-12-20T00:13:43;7.55;;;5.15;;
28174;SDS011;59417;44.788;10.334;2023-12-20T00:16:10;9.80;;;6.10;;
28174;SDS011;59417;44.788;10.334;2023-12-20T00:18:39;6.85;;;4.72;;
28174;SDS011;59417;44.788;10.334;2023-12-20T00:21:05;11.77;;;5.63;;
28174;SDS011;59417;44.788;10.334;2023-12-20T00:23:34;8.68;;;5.45;;
28174;SDS011;59417;44.788;10.334;2023-12-20T00:26:02;8.18;;;4.88;;
28174;SDS011;59417;44.788;10.334;2023-12-20T00:28:29;9.05;;;5.68;;
28174;SDS011;59417;44.788;10.334;2023-12-20T00:33:24;5.43;;;3.97;;
28174;SDS011;59417;44.788;10.334;2023-12-20T00:35:50;10.23;;;4.93;;
28174;SDS011;59417;44.788;10.334;2023-12-20T00:38:16;9.63;;;5.38;;
28174;SDS011;59417;44.788;10.334;2023-12-20T00:40:45;5.65;;;4.38;;
28174;SDS011;59417;44.788;10.334;2023-12-20T00:43:11;7.43;;;5.07;;
28174;SDS011;59417;44.788;10.334;2023-12-20T00:45:40;8.30;;;4.90;;
28174;SDS011;59417;44.788;10.334;2023-12-20T00:48:07;7.65;;;4.18;;
28174;SDS011;59417;44.788;10.334;2023-12-20T00:50:38;6.35;;;4.80;;
28174;SDS011;59417;44.788;10.334;2023-12-20T00:53:05;7.38;;;4.28;;
28174;SDS011;59417;44.788;10.334;2023-12-20T00:55:31;10.63;;;4.88;;
28174;SDS011;59417;44.788;10.334;2023-12-20T00:57:58;6.80;;;4.80;;
28174;SDS011;59417;44.788;10.334;2023-12-20T01:00:25;6.30;;;4.63;;
28174;SDS011;59417;44.788;10.334;2023-12-20T01:02:51;6.80;;;4.50;;
28174;SDS011;59417;44.788;10.334;2023-12-20T01:05:20;6.88;;;4.80;;
28174;SDS011;59417;44.788;10.334;2023-12-20T01:07:49;6.72;;;4.65;;
28174;SDS011;59417;44.788;10.334;2023-12-20T01:10:15;7.22;;;4.68;;
28174;SDS011;59417;44.788;10.334;2023-12-20T01:12:43;6.78;;;5.03;;
28174;SDS011;59417;44.788;10.334;2023-12-20T01:15:09;5.47;;;4.15;;
28174;SDS011;59417;44.788;10.334;2023-12-20T01:17:36;4.97;;;4.20;;
28174;SDS011;59417;44.788;10.334;2023-12-20T01:20:05;6.90;;;4.70;;
28174;SDS011;59417;44.788;10.334;2023-12-20T01:22:35;5.35;;;4.10;;
28174;SDS011;59417;44.788;10.334;2023-12-20T01:25:04;7.85;;;4.38;;
28174;SDS011;59417;44.788;10.334;2023-12-20T01:27:30;11.23;;;4.55;;
28174;SDS011;59417;44.788;10.334;2023-12-20T01:29:57;8.45;;;4.47;;
28174;SDS011;59417;44.788;10.334;2023-12-20T01:32:22;7.18;;;4.30;;
28174;SDS011;59417;44.788;10.334;2023-12-20T01:34:48;7.10;;;4.63;;
28174;SDS011;59417;44.788;10.334;2023-12-20T01:37:15;4.63;;;3.72;;
28174;SDS011;59417;44.788;10.334;2023-12-20T01:39:41;9.63;;;4.18;;
28174;SDS011;59417;44.788;10.334;2023-12-20T01:42:07;6.43;;;4.32;;
28174;SDS011;59417;44.788;10.334;2023-12-20T01:44:33;8.10;;;4.97;;
28174;SDS011;59417;44.788;10.334;2023-12-20T01:47:00;8.70;;;4.70;;
28174;SDS011;59417;44.788;10.334;2023-12-20T01:49:27;7.22;;;4.25;;
28174;SDS011;59417;44.788;10.334;2023-12-20T01:51:54;9.18;;;4.80;;
28174;SDS011;59417;44.788;10.334;2023-12-20T01:54:26;6.47;;;4.07;;
28174;SDS011;59417;44.788;10.334;2023-12-20T01:56:58;6.85;;;4.47;;
28174;SDS011;59417;44.788;10.334;2023-12-20T01:59:25;10.77;;;4.82;;
28174;SDS011;59417;44.788;10.334;2023-12-20T02:01:55;6.55;;;4.65;;
28174;SDS011;59417;44.788;10.334;2023-12-20T02:04:22;5.55;;;4.82;;
28174;SDS011;59417;44.788;10.334;2023-12-20T02:06:55;7.50;;;4.90;;
28174;SDS011;59417;44.788;10.334;2023-12-20T02:09:24;8.63;;;4.70;;
28174;SDS011;59417;44.788;10.334;2023-12-20T02:11:54;6.97;;;4.72;;
28174;SDS011;59417;44.788;10.334;2023-12-20T02:14:20;5.88;;;3.97;;
28174;SDS011;59417;44.788;10.334;2023-12-20T02:16:48;6.72;;;4.18;;
28174;SDS011;59417;44.788;10.334;2023-12-20T02:19:17;8.70;;;4.10;;
28174;SDS011;59417;44.788;10.334;2023-12-20T02:21:48;7.45;;;4.75;;
28174;SDS011;59417;44.788;10.334;2023-12-20T02:24:31;6.18;;;4.03;;
28174;SDS011;59417;44.788;10.334;2023-12-20T02:26:58;6.35;;;4.15;;
28174;SDS011;59417;44.788;10.334;2023-12-20T02:29:28;7.57;;;4.30;;
28174;SDS011;59417;44.788;10.334;2023-12-20T02:32:24;7.22;;;4.40;;
28174;SDS011;59417;44.788;10.334;2023-12-20T02:34:53;4.97;;;3.70;;
28174;SDS011;59417;44.788;10.334;2023-12-20T02:37:23;3.95;;;3.55;;
28174;SDS011;59417;44.788;10.334;2023-12-20T02:39:53;8.55;;;4.80;;
28174;SDS011;59417;44.788;10.334;2023-12-20T02:42:22;4.80;;;3.85;;
28174;SDS011;59417;44.788;10.334;2023-12-20T02:44:58;6.40;;;4.00;;
28174;SDS011;59417;44.788;10.334;2023-12-20T02:47:35;9.07;;;4.28;;
28174;SDS011;59417;44.788;10.334;2023-12-20T02:50:01;6.07;;;4.32;;
28174;SDS011;59417;44.788;10.334;2023-12-20T02:52:28;7.32;;;4.70;;
28174;SDS011;59417;44.788;10.334;2023-12-20T02:54:55;4.85;;;3.90;;
28174;SDS011;59417;44.788;10.334;2023-12-20T02:57:25;8.05;;;4.82;;
28174;SDS011;59417;44.788;10.334;2023-12-20T02:59:54;9.75;;;5.07;;
28174;SDS011;59417;44.788;10.334;2023-12-20T03:02:24;6.10;;;4.15;;
28174;SDS011;59417;44.788;10.334;2023-12-20T03:04:51;6.53;;;4.22;;
28174;SDS011;59417;44.788;10.334;2023-12-20T03:07:17;6.45;;;4.70;;
28174;SDS011;59417;44.788;10.334;2023-12-20T03:09:47;9.73;;;5.68;;
28174;SDS011;59417;44.788;10.334;2023-12-20T03:12:16;7.20;;;4.23;;
28174;SDS011;59417;44.788;10.334;2023-12-20T03:14:54;8.85;;;4.40;;
28174;SDS011;59417;44.788;10.334;2023-12-20T03:17:24;6.32;;;3.97;;
28174;SDS011;59417;44.788;10.334;2023-12-20T03:20:00;6.10;;;4.10;;
28174;SDS011;59417;44.788;10.334;2023-12-20T03:22:29;4.75;;;4.20;;
28174;SDS011;59417;44.788;10.334;2023-12-20T03:25:04;7.32;;;4.95;;
28174;SDS011;59417;44.788;10.334;2023-12-20T03:27:37;5.60;;;4.10;;
28174;SDS011;59417;44.788;10.334;2023-12-20T03:30:06;7.10;;;4.30;;
28174;SDS011;59417;44.788;10.334;2023-12-20T03:32:39;6.53;;;4.30;;
28174;SDS011;59417;44.788;10.334;2023-12-20T03:35:09;6.30;;;3.90;;
28174;SDS011;59417;44.788;10.334;2023-12-20T03:37:35;8.80;;;4.50;;
28174;SDS011;59417;44.788;10.334;2023-12-20T03:40:01;8.63;;;5.38;;
28174;SDS011;59417;44.788;10.334;2023-12-20T03:42:28;5.72;;;4.20;;
28174;SDS011;59417;44.788;10.334;2023-12-20T03:44:55;6.78;;;4.57;;
28174;SDS011;59417;44.788;10.334;2023-12-20T03:47:25;5.38;;;3.97;;
28174;SDS011;59417;44.788;10.334;2023-12-20T03:49:55;8.27;;;4.95;;
28174;SDS011;59417;44.788;10.334;2023-12-20T03:52:22;7.43;;;4.18;;
28174;SDS011;59417;44.788;10.334;2023-12-20T03:54:48;7.40;;;4.50;;
28174;SDS011;59417;44.788;10.334;2023-12-20T03:57:16;5.75;;;4.55;;
28174;SDS011;59417;44.788;10.334;2023-12-20T03:59:46;6.73;;;4.93;;
28174;SDS011;59417;44.788;10.334;2023-12-20T04:02:15;7.65;;;4.57;;
28174;SDS011;59417;44.788;10.334;2023-12-20T04:04:47;6.22;;;4.80;;
28174;SDS011;59417;44.788;10.334;2023-12-20T04:07:21;8.30;;;5.18;;
28174;SDS011;59417;44.788;10.334;2023-12-20T04:09:50;10.15;;;5.10;;
28174;SDS011;59417;44.788;10.334;2023-12-20T04:12:16;7.83;;;5.07;;
28174;SDS011;59417;44.788;10.334;2023-12-20T04:14:46;6.07;;;4.35;;
28174;SDS011;59417;44.788;10.334;2023-12-20T04:17:12;8.48;;;5.07;;
28174;SDS011;59417;44.788;10.334;2023-12-20T04:19:44;5.70;;;4.97;;
28174;SDS011;59417;44.788;10.334;2023-12-20T04:22:11;7.90;;;4.93;;
28174;SDS011;59417;44.788;10.334;2023-12-20T04:24:39;9.45;;;5.72;;
28174;SDS011;59417;44.788;10.334;2023-12-20T04:27:09;8.82;;;5.80;;
28174;SDS011;59417;44.788;10.334;2023-12-20T04:29:37;9.00;;;5.40;;
28174;SDS011;59417;44.788;10.334;2023-12-20T04:32:04;6.90;;;5.28;;
28174;SDS011;59417;44.788;10.334;2023-12-20T04:34:37;8.70;;;5.10;;
28174;SDS011;59417;44.788;10.334;2023-12-20T04:37:04;7.38;;;5.60;;
28174;SDS011;59417;44.788;10.334;2023-12-20T04:39:31;8.50;;;6.03;;
28174;SDS011;59417;44.788;10.334;2023-12-20T04:41:57;7.50;;;5.50;;
28174;SDS011;59417;44.788;10.334;2023-12-20T04:44:26;8.02;;;5.40;;
28174;SDS011;59417;44.788;10.334;2023-12-20T04:46:53;7.53;;;5.68;;
28174;SDS011;59417;44.788;10.334;2023-12-20T04:49:29;8.90;;;6.65;;
28174;SDS011;59417;44.788;10.334;2023-12-20T04:51:57;9.32;;;5.95;;
28174;SDS011;59417;44.788;10.334;2023-12-20T04:54:27;9.63;;;6.25;;
28174;SDS011;59417;44.788;10.334;2023-12-20T04:57:01;8.13;;;5.90;;
28174;SDS011;59417;44.788;10.334;2023-12-20T04:59:28;10.10;;;6.93;;
28174;SDS011;59417;44.788;10.334;2023-12-20T05:01:55;9.23;;;6.15;;
28174;SDS011;59417;44.788;10.334;2023-12-20T05:04:21;9.05;;;6.03;;
28174;SDS011;59417;44.788;10.334;2023-12-20T05:06:51;8.07;;;5.93;;
28174;SDS011;59417;44.788;10.334;2023-12-20T05:11:46;10.27;;;6.00;;
28174;SDS011;59417;44.788;10.334;2023-12-20T05:14:22;11.55;;;7.43;;
28174;SDS011;59417;44.788;10.334;2023-12-20T05:16:51;12.13;;;6.90;;
28174;SDS011;59417;44.788;10.334;2023-12-20T05:19:19;11.20;;;7.38;;
28174;SDS011;59417;44.788;10.334;2023-12-20T05:21:48;14.45;;;8.00;;
28174;SDS011;59417;44.788;10.334;2023-12-20T05:24:24;8.85;;;6.43;;
28174;SDS011;59417;44.788;10.334;2023-12-20T05:26:55;9.43;;;7.25;;
28174;SDS011;59417;44.788;10.334;2023-12-20T05:29:25;8.90;;;6.82;;
28174;SDS011;59417;44.788;10.334;2023-12-20T05:31:53;12.00;;;7.85;;
28174;SDS011;59417;44.788;10.334;2023-12-20T05:34:25;9.02;;;5.95;;
28174;SDS011;59417;44.788;10.334;2023-12-20T05:36:52;11.88;;;6.57;;
28174;SDS011;59417;44.788;10.334;2023-12-20T05:39:21;13.52;;;7.22;;
28174;SDS011;59417;44.788;10.334;2023-12-20T05:41:58;10.80;;;6.32;;
28174;SDS011;59417;44.788;10.334;2023-12-20T05:44:30;9.40;;;6.47;;
28174;SDS011;59417;44.788;10.334;2023-12-20T05:47:05;9.55;;;6.97;;
28174;SDS011;59417;44.788;10.334;2023-12-20T05:49:40;12.85;;;6.97;;
28174;SDS011;59417;44.788;10.334;2023-12-20T05:52:32;11.05;;;6.70;;
28174;SDS011;59417;44.788;10.334;2023-12-20T05:55:16;11.88;;;7.07;;
28174;SDS011;59417;44.788;10.334;2023-12-20T05:57:55;9.38;;;7.20;;
28174;SDS011;59417;44.788;10.334;2023-12-20T06:00:25;11.07;;;7.38;;
28174;SDS011;59417;44.788;10.334;2023-12-20T06:02:55;9.30;;;6.63;;
28174;SDS011;59417;44.788;10.334;2023-12-20T06:05:22;10.90;;;7.20;;
28174;SDS011;59417;44.788;10.334;2023-12-20T06:07:49;11.48;;;7.22;;
28174;SDS011;59417;44.788;10.334;2023-12-20T06:12:48;12.23;;;7.07;;
28174;SDS011;59417;44.788;10.334;2023-12-20T06:15:15;13.25;;;6.85;;
28174;SDS011;59417;44.788;10.334;2023-12-20T06:17:44;10.60;;;6.30;;
28174;SDS011;59417;44.788;10.334;2023-12-20T06:20:12;13.38;;;7.65;;
28174;SDS011;59417;44.788;10.334;2023-12-20T06:22:38;10.10;;;7.43;;
28174;SDS011;59417;44.788;10.334;2023-12-20T06:25:04;12.10;;;8.05;;
28174;SDS011;59417;44.788;10.334;2023-12-20T06:27:30;16.80;;;7.07;;
28174;SDS011;59417;44.788;10.334;2023-12-20T06:29:58;13.02;;;7.15;;
28174;SDS011;59417;44.788;10.334;2023-12-20T06:32:24;10.82;;;7.65;;
28174;SDS011;59417;44.788;10.334;2023-12-20T06:34:50;10.05;;;6.97;;
28174;SDS011;59417;44.788;10.334;2023-12-20T06:37:17;9.43;;;6.53;;
28174;SDS011;59417;44.788;10.334;2023-12-20T06:39:43;10.27;;;6.95;;
28174;SDS011;59417;44.788;10.334;2023-12-20T06:42:09;14.10;;;7.70;;
28174;SDS011;59417;44.788;10.334;2023-12-20T06:44:36;14.27;;;8.43;;
28174;SDS011;59417;44.788;10.334;2023-12-20T06:47:02;11.10;;;7.80;;
28174;SDS011;59417;44.788;10.334;2023-12-20T06:49:29;16.08;;;7.78;;
28174;SDS011;59417;44.788;10.334;2023-12-20T06:51:56;14.27;;;7.38;;
28174;SDS011;59417;44.788;10.334;2023-12-20T06:54:22;11.93;;;8.00;;
28174;SDS011;59417;44.788;10.334;2023-12-20T06:56:48;15.82;;;8.50;;
28174;SDS011;59417;44.788;10.334;2023-12-20T06:59:14;11.02;;;8.18;;
28174;SDS011;59417;44.788;10.334;2023-12-20T07:01:41;10.60;;;7.68;;
28174;SDS011;59417;44.788;10.334;2023-12-20T07:04:09;14.98;;;8.77;;
28174;SDS011;59417;44.788;10.334;2023-12-20T07:06:36;13.50;;;8.80;;
28174;SDS011;59417;44.788;10.334;2023-12-20T07:09:02;14.15;;;8.00;;
28174;SDS011;59417;44.788;10.334;2023-12-20T07:11:28;15.93;;;7.90;;
28174;SDS011;59417;44.788;10.334;2023-12-20T07:13:55;14.65;;;8.15;;
28174;SDS011;59417;44.788;10.334;2023-12-20T07:16:21;9.82;;;7.47;;
28174;SDS011;59417;44.788;10.334;2023-12-20T07:18:49;11.68;;;7.93;;
28174;SDS011;59417;44.788;10.334;2023-12-20T07:21:18;16.88;;;9.35;;
28174;SDS011;59417;44.788;10.334;2023-12-20T07:23:45;14.50;;;9.05;;
28174;SDS011;59417;44.788;10.334;2023-12-20T07:26:15;19.50;;;8.63;;
28174;SDS011;59417;44.788;10.334;2023-12-20T07:28:43;16.15;;;9.15;;
28174;SDS011;59417;44.788;10.334;2023-12-20T07:31:09;12.75;;;9.18;;
28174;SDS011;59417;44.788;10.334;2023-12-20T07:33:35;13.30;;;8.95;;
28174;SDS011;59417;44.788;10.334;2023-12-20T07:36:04;12.20;;;9.32;;
28174;SDS011;59417;44.788;10.334;2023-12-20T07:38:30;19.05;;;10.40;;
28174;SDS011;59417;44.788;10.334;2023-12-20T07:40:56;13.45;;;9.52;;
28174;SDS011;59417;44.788;10.334;2023-12-20T07:43:22;16.45;;;9.90;;
28174;SDS011;59417;44.788;10.334;2023-12-20T07:45:49;22.17;;;10.40;;
28174;SDS011;59417;44.788;10.334;2023-12-20T07:48:15;16.20;;;10.45;;
28174;SDS011;59417;44.788;10.334;2023-12-20T07:50:42;15.07;;;10.30;;
28174;SDS011;59417;44.788;10.334;2023-12-20T07:53:08;17.02;;;11.13;;
28174;SDS011;59417;44.788;10.334;2023-12-20T07:55:38;15.65;;;10.52;;
28174;SDS011;59417;44.788;10.334;2023-12-20T07:58:04;20.00;;;10.65;;
28174;SDS011;59417;44.788;10.334;2023-12-20T08:00:30;17.00;;;10.20;;
28174;SDS011;59417;44.788;10.334;2023-12-20T08:02:56;18.60;;;11.23;;
28174;SDS011;59417;44.788;10.334;2023-12-20T08:05:25;17.45;;;11.45;;
28174;SDS011;59417;44.788;10.334;2023-12-20T08:07:53;18.50;;;11.45;;
28174;SDS011;59417;44.788;10.334;2023-12-20T08:10:19;21.38;;;11.98;;
28174;SDS011;59417;44.788;10.334;2023-12-20T08:12:45;16.15;;;10.63;;
28174;SDS011;59417;44.788;10.334;2023-12-20T08:15:14;19.98;;;11.68;;
28174;SDS011;59417;44.788;10.334;2023-12-20T08:17:41;14.07;;;9.85;;
28174;SDS011;59417;44.788;10.334;2023-12-20T08:20:07;14.02;;;10.38;;
28174;SDS011;59417;44.788;10.334;2023-12-20T08:22:33;17.98;;;11.07;;
28174;SDS011;59417;44.788;10.334;2023-12-20T08:24:59;15.70;;;10.40;;
28174;SDS011;59417;44.788;10.334;2023-12-20T08:27:25;13.57;;;10.32;;
28174;SDS011;59417;44.788;10.334;2023-12-20T08:29:54;14.30;;;9.98;;
28174;SDS011;59417;44.788;10.334;2023-12-20T08:32:21;15.40;;;10.50;;
28174;SDS011;59417;44.788;10.334;2023-12-20T08:34:46;17.85;;;10.50;;
28174;SDS011;59417;44.788;10.334;2023-12-20T08:37:12;16.15;;;10.65;;
28174;SDS011;59417;44.788;10.334;2023-12-20T08:39:38;16.77;;;10.77;;
28174;SDS011;59417;44.788;10.334;2023-12-20T08:42:04;16.27;;;10.65;;
28174;SDS011;59417;44.788;10.334;2023-12-20T08:44:31;16.95;;;10.10;;
28174;SDS011;59417;44.788;10.334;2023-12-20T08:46:57;19.23;;;10.60;;
28174;SDS011;59417;44.788;10.334;2023-12-20T08:49:23;16.13;;;9.23;;
28174;SDS011;59417;44.788;10.334;2023-12-20T08:51:52;14.63;;;9.00;;
28174;SDS011;59417;44.788;10.334;2023-12-20T08:54:20;21.52;;;10.25;;
28174;SDS011;59417;44.788;10.334;2023-12-20T08:56:47;14.88;;;9.52;;
28174;SDS011;59417;44.788;10.334;2023-12-20T08:59:14;18.85;;;9.27;;
28174;SDS011;59417;44.788;10.334;2023-12-20T09:01:40;17.05;;;9.25;;
28174;SDS011;59417;44.788;10.334;2023-12-20T09:04:07;14.27;;;8.88;;
28174;SDS011;59417;44.788;10.334;2023-12-20T09:06:32;18.55;;;8.60;;
28174;SDS011;59417;44.788;10.334;2023-12-20T09:08:58;20.27;;;10.18;;
28174;SDS011;59417;44.788;10.334;2023-12-20T09:11:24;14.90;;;9.15;;
28174;SDS011;59417;44.788;10.334;2023-12-20T09:13:49;11.90;;;8.40;;
28174;SDS011;59417;44.788;10.334;2023-12-20T09:16:16;15.15;;;9.20;;
28174;SDS011;59417;44.788;10.334;2023-12-20T09:18:42;17.13;;;9.35;;
28174;SDS011;59417;44.788;10.334;2023-12-20T09:21:07;16.08;;;9.00;;
28174;SDS011;59417;44.788;10.334;2023-12-20T09:23:34;19.05;;;9.15;;
28174;SDS011;59417;44.788;10.334;2023-12-20T09:26:00;16.73;;;9.30;;
28174;SDS011;59417;44.788;10.334;2023-12-20T09:28:25;17.20;;;9.27;;
28174;SDS011;59417;44.788;10.334;2023-12-20T09:30:52;16.55;;;9.18;;
28174;SDS011;59417;44.788;10.334;2023-12-20T09:33:21;20.60;;;9.88;;
28174;SDS011;59417;44.788;10.334;2023-12-20T09:35:47;15.15;;;9.32;;
28174;SDS011;59417;44.788;10.334;2023-12-20T09:38:17;16.75;;;11.00;;
28174;SDS011;59417;44.788;10.334;2023-12-20T09:40:44;19.15;;;11.32;;
28174;SDS011;59417;44.788;10.334;2023-12-20T09:43:11;16.73;;;10.32;;
28174;SDS011;59417;44.788;10.334;2023-12-20T09:45:41;16.70;;;11.45;;
28174;SDS011;59417;44.788;10.334;2023-12-20T09:48:11;27.98;;;13.02;;
28174;SDS011;59417;44.788;10.334;2023-12-20T09:50:38;26.88;;;13.93;;
28174;SDS011;59417;44.788;10.334;2023-12-20T09:53:10;20.48;;;13.00;;
28174;SDS011;59417;44.788;10.334;2023-12-20T09:55:40;21.20;;;14.30;;
28174;SDS011;59417;44.788;10.334;2023-12-20T09:58:07;19.52;;;12.02;;
28174;SDS011;59417;44.788;10.334;2023-12-20T10:00:45;19.92;;;13.18;;
28174;SDS011;59417;44.788;10.334;2023-12-20T10:03:12;22.33;;;11.88;;
28174;SDS011;59417;44.788;10.334;2023-12-20T10:05:41;20.38;;;11.90;;
28174;SDS011;59417;44.788;10.334;2023-12-20T10:08:08;18.60;;;11.85;;
28174;SDS011;59417;44.788;10.334;2023-12-20T10:10:34;14.63;;;10.68;;
28174;SDS011;59417;44.788;10.334;2023-12-20T10:13:10;19.45;;;11.88;;
28174;SDS011;59417;44.788;10.334;2023-12-20T10:15:38;18.63;;;12.13;;
28174;SDS011;59417;44.788;10.334;2023-12-20T10:18:06;19.77;;;10.93;;
28174;SDS011;59417;44.788;10.334;2023-12-20T10:20:33;17.50;;;11.77;;
28174;SDS011;59417;44.788;10.334;2023-12-20T10:23:00;21.17;;;12.20;;
28174;SDS011;59417;44.788;10.334;2023-12-20T10:25:26;19.42;;;11.02;;
28174;SDS011;59417;44.788;10.334;2023-12-20T10:30:39;16.08;;;10.98;;
28174;SDS011;59417;44.788;10.334;2023-12-20T10:33:06;20.10;;;12.20;;
28174;SDS011;59417;44.788;10.334;2023-12-20T10:35:36;21.85;;;11.55;;
28174;SDS011;59417;44.788;10.334;2023-12-20T10:38:04;19.35;;;12.32;;
28174;SDS011;59417;44.788;10.334;2023-12-20T10:40:36;18.52;;;12.85;;
28174;SDS011;59417;44.788;10.334;2023-12-20T10:43:03;26.55;;;12.45;;
28174;SDS011;59417;44.788;10.334;2023-12-20T10:45:31;22.77;;;12.90;;
28174;SDS011;59417;44.788;10.334;2023-12-20T10:48:01;17.23;;;11.90;;
28174;SDS011;59417;44.788;10.334;2023-12-20T10:50:28;20.05;;;12.15;;
28174;SDS011;59417;44.788;10.334;2023-12-20T10:52:56;23.88;;;13.02;;
28174;SDS011;59417;44.788;10.334;2023-12-20T10:55:29;23.50;;;12.48;;
28174;SDS011;59417;44.788;10.334;2023-12-20T10:58:00;24.45;;;13.45;;
28174;SDS011;59417;44.788;10.334;2023-12-20T11:00:28;28.33;;;13.13;;
28174;SDS011;59417;44.788;10.334;2023-12-20T11:03:00;24.48;;;13.55;;
28174;SDS011;59417;44.788;10.334;2023-12-20T11:11:20;22.25;;;12.43;;
28174;SDS011;59417;44.788;10.334;2023-12-20T11:14:21;17.70;;;13.20;;
28174;SDS011;59417;44.788;10.334;2023-12-20T11:16:56;23.95;;;13.25;;
28174;SDS011;59417;44.788;10.334;2023-12-20T11:19:38;17.45;;;12.68;;
28174;SDS011;59417;44.788;10.334;2023-12-20T11:22:22;19.95;;;12.77;;
28174;SDS011;59417;44.788;10.334;2023-12-20T11:24:51;21.77;;;13.43;;
28174;SDS011;59417;44.788;10.334;2023-12-20T11:27:19;25.80;;;13.75;;
28174;SDS011;59417;44.788;10.334;2023-12-20T11:29:51;20.48;;;14.07;;
28174;SDS011;59417;44.788;10.334;2023-12-20T11:34:50;22.33;;;14.57;;
28174;SDS011;59417;44.788;10.334;2023-12-20T11:37:21;28.58;;;14.13;;
28174;SDS011;59417;44.788;10.334;2023-12-20T11:40:05;25.95;;;14.40;;
28174;SDS011;59417;44.788;10.334;2023-12-20T11:42:38;22.77;;;13.60;;
28174;SDS011;59417;44.788;10.334;2023-12-20T11:47:46;18.42;;;13.18;;
28174;SDS011;59417;44.788;10.334;2023-12-20T11:50:18;25.50;;;13.90;;
28174;SDS011;59417;44.788;10.334;2023-12-20T11:52:45;22.35;;;14.30;;
28174;SDS011;59417;44.788;10.334;2023-12-20T11:55:12;20.17;;;13.38;;
28174;SDS011;59417;44.788;10.334;2023-12-20T11:57:38;25.88;;;14.50;;
28174;SDS011;59417;44.788;10.334;2023-12-20T12:00:05;23.13;;;14.27;;
28174;SDS011;59417;44.788;10.334;2023-12-20T12:02:38;27.35;;;14.88;;
28174;SDS011;59417;44.788;10.334;2023-12-20T12:05:04;26.60;;;15.10;;
28174;SDS011;59417;44.788;10.334;2023-12-20T12:07:34;24.80;;;14.88;;
28174;SDS011;59417;44.788;10.334;2023-12-20T12:10:07;23.05;;;15.02;;
28174;SDS011;59417;44.788;10.334;2023-12-20T12:12:36;20.42;;;13.57;;
28174;SDS011;59417;44.788;10.334;2023-12-20T12:15:04;23.20;;;13.95;;
28174;SDS011;59417;44.788;10.334;2023-12-20T12:17:34;24.27;;;13.57;;
28174;SDS011;59417;44.788;10.334;2023-12-20T12:20:07;19.30;;;13.40;;
28174;SDS011;59417;44.788;10.334;2023-12-20T12:23:03;23.98;;;14.00;;
28174;SDS011;59417;44.788;10.334;2023-12-20T12:28:46;23.70;;;13.77;;
28174;SDS011;59417;44.788;10.334;2023-12-20T12:31:14;20.60;;;13.13;;
28174;SDS011;59417;44.788;10.334;2023-12-20T12:33:45;26.23;;;13.25;;
28174;SDS011;59417;44.788;10.334;2023-12-20T12:36:29;25.33;;;12.88;;
28174;SDS011;59417;44.788;10.334;2023-12-20T12:38:56;23.10;;;12.93;;
28174;SDS011;59417;44.788;10.334;2023-12-20T12:41:27;22.00;;;13.63;;
28174;SDS011;59417;44.788;10.334;2023-12-20T12:43:58;21.08;;;12.90;;
28174;SDS011;59417;44.788;10.334;2023-12-20T12:46:26;20.42;;;13.30;;
28174;SDS011;59417;44.788;10.334;2023-12-20T12:49:01;21.92;;;13.45;;
28174;SDS011;59417;44.788;10.334;2023-12-20T12:51:28;17.20;;;11.50;;
28174;SDS011;59417;44.788;10.334;2023-12-20T12:54:00;22.63;;;12.85;;
28174;SDS011;59417;44.788;10.334;2023-12-20T13:00:04;20.83;;;13.35;;
28174;SDS011;59417;44.788;10.334;2023-12-20T13:02:34;26.13;;;13.57;;
28174;SDS011;59417;44.788;10.334;2023-12-20T13:05:03;18.23;;;13.32;;
28174;SDS011;59417;44.788;10.334;2023-12-20T13:07:30;21.23;;;14.10;;
28174;SDS011;59417;44.788;10.334;2023-12-20T13:09:56;25.17;;;13.77;;
28174;SDS011;59417;44.788;10.334;2023-12-20T13:12:22;25.73;;;12.65;;
28174;SDS011;59417;44.788;10.334;2023-12-20T13:14:51;22.27;;;14.27;;
28174;SDS011;59417;44.788;10.334;2023-12-20T13:17:17;25.05;;;14.77;;
28174;SDS011;59417;44.788;10.334;2023-12-20T13:19:43;21.63;;;13.40;;
28174;SDS011;59417;44.788;10.334;2023-12-20T13:22:09;25.85;;;13.18;;
28174;SDS011;59417;44.788;10.334;2023-12-20T13:24:41;24.85;;;14.57;;
28174;SDS011;59417;44.788;10.334;2023-12-20T13:27:09;20.00;;;13.82;;
28174;SDS011;59417;44.788;10.334;2023-12-20T13:29:36;20.63;;;14.13;;
28174;SDS011;59417;44.788;10.334;2023-12-20T13:32:03;20.42;;;14.50;;
28174;SDS011;59417;44.788;10.334;2023-12-20T13:34:31;20.88;;;13.75;;
28174;SDS011;59417;44.788;10.334;2023-12-20T13:37:02;25.65;;;14.02;;
28174;SDS011;59417;44.788;10.334;2023-12-20T13:39:30;23.65;;;14.48;;
28174;SDS011;59417;44.788;10.334;2023-12-20T13:41:58;22.08;;;13.93;;
28174;SDS011;59417;44.788;10.334;2023-12-20T13:44:25;21.40;;;14.25;;
28174;SDS011;59417;44.788;10.334;2023-12-20T13:46:59;21.83;;;13.93;;
28174;SDS011;59417;44.788;10.334;2023-12-20T13:49:25;29.73;;;15.35;;
28174;SDS011;59417;44.788;10.334;2023-12-20T13:51:53;24.10;;;15.30;;
28174;SDS011;59417;44.788;10.334;2023-12-20T13:54:20;23.27;;;13.98;;
28174;SDS011;59417;44.788;10.334;2023-12-20T13:56:47;22.50;;;15.02;;
28174;SDS011;59417;44.788;10.334;2023-12-20T13:59:13;24.33;;;14.43;;
28174;SDS011;59417;44.788;10.334;2023-12-20T14:01:40;27.45;;;14.75;;
28174;SDS011;59417;44.788;10.334;2023-12-20T14:04:06;21.30;;;14.57;;
28174;SDS011;59417;44.788;10.334;2023-12-20T14:06:32;27.92;;;14.93;;
28174;SDS011;59417;44.788;10.334;2023-12-20T14:09:03;22.10;;;14.30;;
28174;SDS011;59417;44.788;10.334;2023-12-20T14:11:29;19.83;;;13.63;;
28174;SDS011;59417;44.788;10.334;2023-12-20T14:13:55;23.52;;;14.10;;
28174;SDS011;59417;44.788;10.334;2023-12-20T14:16:24;21.73;;;14.38;;
28174;SDS011;59417;44.788;10.334;2023-12-20T14:18:51;21.33;;;14.95;;
28174;SDS011;59417;44.788;10.334;2023-12-20T14:21:23;25.50;;;14.93;;
28174;SDS011;59417;44.788;10.334;2023-12-20T14:23:51;23.75;;;15.80;;
28174;SDS011;59417;44.788;10.334;2023-12-20T14:26:17;22.27;;;14.50;;
28174;SDS011;59417;44.788;10.334;2023-12-20T14:28:48;23.92;;;14.75;;
28174;SDS011;59417;44.788;10.334;2023-12-20T14:31:16;26.05;;;14.95;;
28174;SDS011;59417;44.788;10.334;2023-12-20T14:33:44;22.42;;;15.05;;
28174;SDS011;59417;44.788;10.334;2023-12-20T14:36:17;22.35;;;13.80;;
28174;SDS011;59417;44.788;10.334;2023-12-20T14:38:44;21.70;;;15.48;;
28174;SDS011;59417;44.788;10.334;2023-12-20T14:41:10;26.65;;;14.93;;
28174;SDS011;59417;44.788;10.334;2023-12-20T14:43:37;21.25;;;14.45;;
28174;SDS011;59417;44.788;10.334;2023-12-20T14:46:03;32.20;;;16.27;;
28174;SDS011;59417;44.788;10.334;2023-12-20T14:48:36;23.10;;;15.55;;
28174;SDS011;59417;44.788;10.334;2023-12-20T14:51:03;21.63;;;15.60;;
28174;SDS011;59417;44.788;10.334;2023-12-20T14:53:30;23.10;;;15.18;;
28174;SDS011;59417;44.788;10.334;2023-12-20T14:55:57;22.50;;;15.75;;
28174;SDS011;59417;44.788;10.334;2023-12-20T14:58:29;23.98;;;15.80;;